sensor_id;sensor_type;location;lat;lon;timestamp;P1;durP1;ratioP1;P2;durP2;ratioP2
3487;SDS011;38546;48.170;11.724;2023-03-20T00:00:59;16.07;;;10.57;;
3487;SDS011;38546;48.170;11.724;2023-03-20T00:03:49;18.90;;;11.37;;
3487;SDS011;38546;48.170;11.724;2023-03-20T00:06:38;17.60;;;11.37;;
3487;SDS011;38546;48.170;11.724;2023-03-20T00:09:28;19.07;;;12.50;;
3487;SDS011;38546;48.170;11.724;2023-03-20T00:12:21;15.80;;;11.47;;
3487;SDS011;38546;48.170;11.724;2023-03-20T00:15:16;22.20;;;11.70;;
3487;SDS011;38546;48.170;11.724;2023-03-20T00:18:20;18.23;;;11.37;;
3487;SDS011;38546;48.170;11.724;2023-03-20T00:21:18;18.80;;;10.43;;
3487;SDS011;38546;48.170;11.724;2023-03-20T00:24:08;14.80;;;10.30;;
3487;SDS011;38546;48.170;11.724;2023-03-20T00:26:57;16.53;;;11.30;;
3487;SDS011;38546;48.170;11.724;2023-03-20T00:29:47;16.53;;;10.20;;
3487;SDS011;38546;48.170;11.724;2023-03-20T00:32:37;13.27;;;10.00;;
3487;SDS011;38546;48.170;11.724;2023-03-20T00:35:29;18.87;;;11.30;;
3487;SDS011;38546;48.170;11.724;2023-03-20T00:38:19;13.60;;;9.27;;
3487;SDS011;38546;48.170;11.724;2023-03-20T00:41:11;15.40;;;9.50;;
3487;SDS011;38546;48.170;11.724;2023-03-20T00:47:40;15.30;;;8.77;;
3487;SDS011;38546;48.170;11.724;2023-03-20T00:50:30;10.70;;;8.30;;
3487;SDS011;38546;48.170;11.724;2023-03-20T00:53:21;16.67;;;9.43;;
3487;SDS011;38546;48.170;11.724;2023-03-20T00:56:32;12.63;;;8.07;;
3487;SDS011;38546;48.170;11.724;2023-03-20T00:59:39;12.27;;;8.17;;
3487;SDS011;38546;48.170;11.724;2023-03-20T01:02:39;10.97;;;7.80;;
3487;SDS011;38546;48.170;11.724;2023-03-20T01:05:29;12.50;;;8.80;;
3487;SDS011;38546;48.170;11.724;2023-03-20T01:08:19;11.27;;;8.17;;
3487;SDS011;38546;48.170;11.724;2023-03-20T01:11:11;8.27;;;7.00;;
3487;SDS011;38546;48.170;11.724;2023-03-20T01:14:11;11.83;;;8.10;;
3487;SDS011;38546;48.170;11.724;2023-03-20T01:17:03;9.87;;;6.80;;
3487;SDS011;38546;48.170;11.724;2023-03-20T01:19:54;10.27;;;6.93;;
3487;SDS011;38546;48.170;11.724;2023-03-20T01:22:43;8.63;;;7.70;;
3487;SDS011;38546;48.170;11.724;2023-03-20T01:25:33;8.33;;;6.50;;
3487;SDS011;38546;48.170;11.724;2023-03-20T01:28:22;9.63;;;7.03;;
3487;SDS011;38546;48.170;11.724;2023-03-20T01:31:14;8.13;;;6.70;;
3487;SDS011;38546;48.170;11.724;2023-03-20T01:34:08;7.53;;;6.50;;
3487;SDS011;38546;48.170;11.724;2023-03-20T01:36:59;9.13;;;7.07;;
3487;SDS011;38546;48.170;11.724;2023-03-20T01:39:48;10.70;;;6.77;;
3487;SDS011;38546;48.170;11.724;2023-03-20T01:42:38;6.93;;;6.17;;
3487;SDS011;38546;48.170;11.724;2023-03-20T01:45:29;8.40;;;7.10;;
3487;SDS011;38546;48.170;11.724;2023-03-20T01:48:24;7.60;;;6.13;;
3487;SDS011;38546;48.170;11.724;2023-03-20T01:51:45;7.90;;;7.10;;
3487;SDS011;38546;48.170;11.724;2023-03-20T01:54:36;8.93;;;6.30;;
3487;SDS011;38546;48.170;11.724;2023-03-20T01:57:27;7.67;;;6.33;;
3487;SDS011;38546;48.170;11.724;2023-03-20T02:00:16;7.10;;;5.30;;
3487;SDS011;38546;48.170;11.724;2023-03-20T02:03:07;7.80;;;6.40;;
3487;SDS011;38546;48.170;11.724;2023-03-20T02:05:57;6.90;;;5.60;;
3487;SDS011;38546;48.170;11.724;2023-03-20T02:08:48;7.90;;;5.87;;
3487;SDS011;38546;48.170;11.724;2023-03-20T02:11:39;10.03;;;5.80;;
3487;SDS011;38546;48.170;11.724;2023-03-20T02:14:30;6.50;;;5.90;;
3487;SDS011;38546;48.170;11.724;2023-03-20T02:17:21;8.07;;;5.57;;
3487;SDS011;38546;48.170;11.724;2023-03-20T02:20:15;5.53;;;4.93;;
3487;SDS011;38546;48.170;11.724;2023-03-20T02:29:47;5.27;;;4.77;;
3487;SDS011;38546;48.170;11.724;2023-03-20T02:41:18;8.20;;;5.00;;
3487;SDS011;38546;48.170;11.724;2023-03-20T02:44:43;5.63;;;5.00;;
3487;SDS011;38546;48.170;11.724;2023-03-20T02:48:06;5.20;;;4.80;;
3487;SDS011;38546;48.170;11.724;2023-03-20T02:55:31;4.20;;;3.80;;
3487;SDS011;38546;48.170;11.724;2023-03-20T02:58:35;4.93;;;4.23;;
3487;SDS011;38546;48.170;11.724;2023-03-20T03:01:35;5.27;;;4.30;;
3487;SDS011;38546;48.170;11.724;2023-03-20T03:04:34;4.53;;;4.13;;
3487;SDS011;38546;48.170;11.724;2023-03-20T03:07:31;4.20;;;3.87;;
3487;SDS011;38546;48.170;11.724;2023-03-20T03:10:23;4.13;;;3.83;;
3487;SDS011;38546;48.170;11.724;2023-03-20T03:13:19;4.40;;;4.00;;
3487;SDS011;38546;48.170;11.724;2023-03-20T03:16:16;5.13;;;4.63;;
3487;SDS011;38546;48.170;11.724;2023-03-20T03:19:13;5.10;;;4.53;;
3487;SDS011;38546;48.170;11.724;2023-03-20T03:22:07;4.77;;;4.27;;
3487;SDS011;38546;48.170;11.724;2023-03-20T03:24:56;5.20;;;4.70;;
3487;SDS011;38546;48.170;11.724;2023-03-20T03:27:46;8.03;;;4.90;;
3487;SDS011;38546;48.170;11.724;2023-03-20T03:30:44;4.80;;;4.40;;
3487;SDS011;38546;48.170;11.724;2023-03-20T03:33:35;6.40;;;4.50;;
3487;SDS011;38546;48.170;11.724;2023-03-20T03:36:48;3.80;;;3.50;;
3487;SDS011;38546;48.170;11.724;2023-03-20T03:39:58;4.70;;;4.40;;
3487;SDS011;38546;48.170;11.724;2023-03-20T03:44:36;5.40;;;4.83;;
3487;SDS011;38546;48.170;11.724;2023-03-20T03:47:44;6.60;;;4.70;;
3487;SDS011;38546;48.170;11.724;2023-03-20T03:50:53;5.73;;;5.00;;
3487;SDS011;38546;48.170;11.724;2023-03-20T03:54:34;5.27;;;4.70;;
3487;SDS011;38546;48.170;11.724;2023-03-20T03:58:48;5.20;;;3.90;;
3487;SDS011;38546;48.170;11.724;2023-03-20T04:01:42;5.70;;;4.73;;
3487;SDS011;38546;48.170;11.724;2023-03-20T04:04:34;8.27;;;5.40;;
3487;SDS011;38546;48.170;11.724;2023-03-20T04:07:28;7.73;;;5.50;;
3487;SDS011;38546;48.170;11.724;2023-03-20T04:10:17;5.93;;;5.33;;
3487;SDS011;38546;48.170;11.724;2023-03-20T04:13:07;6.37;;;5.30;;
3487;SDS011;38546;48.170;11.724;2023-03-20T04:15:56;6.67;;;5.50;;
3487;SDS011;38546;48.170;11.724;2023-03-20T04:18:46;7.73;;;5.83;;
3487;SDS011;38546;48.170;11.724;2023-03-20T04:21:35;7.10;;;5.20;;
3487;SDS011;38546;48.170;11.724;2023-03-20T04:24:25;8.13;;;5.90;;
3487;SDS011;38546;48.170;11.724;2023-03-20T04:27:14;6.30;;;5.10;;
3487;SDS011;38546;48.170;11.724;2023-03-20T04:30:04;7.10;;;5.63;;
3487;SDS011;38546;48.170;11.724;2023-03-20T04:32:55;12.67;;;6.03;;
3487;SDS011;38546;48.170;11.724;2023-03-20T04:35:45;6.00;;;4.93;;
3487;SDS011;38546;48.170;11.724;2023-03-20T04:38:35;5.37;;;4.00;;
3487;SDS011;38546;48.170;11.724;2023-03-20T04:41:24;5.17;;;4.67;;
3487;SDS011;38546;48.170;11.724;2023-03-20T04:44:13;5.20;;;4.70;;
3487;SDS011;38546;48.170;11.724;2023-03-20T04:47:03;9.00;;;5.37;;
3487;SDS011;38546;48.170;11.724;2023-03-20T04:49:53;7.80;;;5.20;;
3487;SDS011;38546;48.170;11.724;2023-03-20T04:52:42;5.17;;;4.70;;
3487;SDS011;38546;48.170;11.724;2023-03-20T04:55:31;4.83;;;4.10;;
3487;SDS011;38546;48.170;11.724;2023-03-20T04:58:21;4.80;;;3.93;;
3487;SDS011;38546;48.170;11.724;2023-03-20T05:01:11;5.63;;;4.67;;
3487;SDS011;38546;48.170;11.724;2023-03-20T05:04:00;4.67;;;4.17;;
3487;SDS011;38546;48.170;11.724;2023-03-20T05:06:50;5.97;;;4.70;;
3487;SDS011;38546;48.170;11.724;2023-03-20T05:09:39;7.37;;;4.30;;
3487;SDS011;38546;48.170;11.724;2023-03-20T05:12:28;5.13;;;4.20;;
3487;SDS011;38546;48.170;11.724;2023-03-20T05:15:17;6.03;;;4.33;;
3487;SDS011;38546;48.170;11.724;2023-03-20T05:18:06;7.77;;;5.63;;
3487;SDS011;38546;48.170;11.724;2023-03-20T05:20:55;6.50;;;5.63;;
3487;SDS011;38546;48.170;11.724;2023-03-20T05:23:45;5.80;;;5.30;;
3487;SDS011;38546;48.170;11.724;2023-03-20T05:26:34;8.10;;;5.70;;
3487;SDS011;38546;48.170;11.724;2023-03-20T05:29:23;7.33;;;5.43;;
3487;SDS011;38546;48.170;11.724;2023-03-20T05:32:12;7.97;;;5.47;;
3487;SDS011;38546;48.170;11.724;2023-03-20T05:35:01;6.87;;;5.70;;
3487;SDS011;38546;48.170;11.724;2023-03-20T05:37:52;8.77;;;6.27;;
3487;SDS011;38546;48.170;11.724;2023-03-20T05:40:41;13.30;;;5.90;;
3487;SDS011;38546;48.170;11.724;2023-03-20T05:43:30;6.27;;;5.67;;
3487;SDS011;38546;48.170;11.724;2023-03-20T05:46:19;7.90;;;5.43;;
3487;SDS011;38546;48.170;11.724;2023-03-20T05:49:09;9.80;;;6.77;;
3487;SDS011;38546;48.170;11.724;2023-03-20T05:51:58;6.00;;;5.10;;
3487;SDS011;38546;48.170;11.724;2023-03-20T05:54:47;8.13;;;5.57;;
3487;SDS011;38546;48.170;11.724;2023-03-20T05:57:37;9.20;;;6.83;;
3487;SDS011;38546;48.170;11.724;2023-03-20T06:00:25;14.43;;;8.30;;
3487;SDS011;38546;48.170;11.724;2023-03-20T06:03:15;12.00;;;7.07;;
3487;SDS011;38546;48.170;11.724;2023-03-20T06:06:04;17.10;;;7.20;;
3487;SDS011;38546;48.170;11.724;2023-03-20T06:08:54;9.80;;;6.57;;
3487;SDS011;38546;48.170;11.724;2023-03-20T06:11:43;10.40;;;8.13;;
3487;SDS011;38546;48.170;11.724;2023-03-20T06:14:32;13.30;;;8.27;;
3487;SDS011;38546;48.170;11.724;2023-03-20T06:17:21;9.93;;;7.87;;
3487;SDS011;38546;48.170;11.724;2023-03-20T06:20:10;10.80;;;7.60;;
3487;SDS011;38546;48.170;11.724;2023-03-20T06:23:00;11.43;;;7.87;;
3487;SDS011;38546;48.170;11.724;2023-03-20T06:25:49;11.97;;;8.07;;
3487;SDS011;38546;48.170;11.724;2023-03-20T06:28:38;11.60;;;7.90;;
3487;SDS011;38546;48.170;11.724;2023-03-20T06:31:27;11.53;;;8.60;;
3487;SDS011;38546;48.170;11.724;2023-03-20T06:34:16;13.07;;;7.50;;
3487;SDS011;38546;48.170;11.724;2023-03-20T06:37:05;13.93;;;9.00;;
3487;SDS011;38546;48.170;11.724;2023-03-20T06:39:54;12.90;;;8.20;;
3487;SDS011;38546;48.170;11.724;2023-03-20T06:42:44;14.63;;;9.40;;
3487;SDS011;38546;48.170;11.724;2023-03-20T06:45:33;11.67;;;9.00;;
3487;SDS011;38546;48.170;11.724;2023-03-20T06:48:23;13.03;;;8.50;;
3487;SDS011;38546;48.170;11.724;2023-03-20T06:51:13;13.63;;;9.00;;
3487;SDS011;38546;48.170;11.724;2023-03-20T06:54:03;12.93;;;8.70;;
3487;SDS011;38546;48.170;11.724;2023-03-20T06:56:52;16.43;;;9.43;;
3487;SDS011;38546;48.170;11.724;2023-03-20T06:59:42;16.37;;;10.00;;
3487;SDS011;38546;48.170;11.724;2023-03-20T07:02:31;13.33;;;9.30;;
3487;SDS011;38546;48.170;11.724;2023-03-20T07:05:21;15.40;;;9.80;;
3487;SDS011;38546;48.170;11.724;2023-03-20T07:08:10;12.20;;;8.53;;
3487;SDS011;38546;48.170;11.724;2023-03-20T07:10:59;16.63;;;10.43;;
3487;SDS011;38546;48.170;11.724;2023-03-20T07:13:49;18.50;;;11.00;;
3487;SDS011;38546;48.170;11.724;2023-03-20T07:16:38;14.90;;;9.90;;
3487;SDS011;38546;48.170;11.724;2023-03-20T07:19:27;17.83;;;10.83;;
3487;SDS011;38546;48.170;11.724;2023-03-20T07:22:18;19.17;;;10.63;;
3487;SDS011;38546;48.170;11.724;2023-03-20T07:25:11;13.33;;;8.83;;
3487;SDS011;38546;48.170;11.724;2023-03-20T07:28:00;16.40;;;10.37;;
3487;SDS011;38546;48.170;11.724;2023-03-20T07:30:49;15.80;;;10.00;;
3487;SDS011;38546;48.170;11.724;2023-03-20T07:33:38;15.60;;;9.80;;
3487;SDS011;38546;48.170;11.724;2023-03-20T07:36:27;16.70;;;9.73;;
3487;SDS011;38546;48.170;11.724;2023-03-20T07:39:16;13.87;;;9.17;;
3487;SDS011;38546;48.170;11.724;2023-03-20T07:42:05;19.23;;;11.40;;
3487;SDS011;38546;48.170;11.724;2023-03-20T07:44:54;13.23;;;9.40;;
3487;SDS011;38546;48.170;11.724;2023-03-20T07:47:44;12.27;;;9.23;;
3487;SDS011;38546;48.170;11.724;2023-03-20T07:50:35;13.63;;;9.07;;
3487;SDS011;38546;48.170;11.724;2023-03-20T07:53:24;16.00;;;8.43;;
3487;SDS011;38546;48.170;11.724;2023-03-20T07:56:13;13.80;;;9.80;;
3487;SDS011;38546;48.170;11.724;2023-03-20T07:59:02;14.60;;;9.87;;
3487;SDS011;38546;48.170;11.724;2023-03-20T08:01:51;14.20;;;8.83;;
3487;SDS011;38546;48.170;11.724;2023-03-20T08:04:41;16.63;;;10.47;;
3487;SDS011;38546;48.170;11.724;2023-03-20T08:07:31;11.67;;;8.20;;
3487;SDS011;38546;48.170;11.724;2023-03-20T08:10:21;12.77;;;8.77;;
3487;SDS011;38546;48.170;11.724;2023-03-20T08:13:10;12.97;;;8.77;;
3487;SDS011;38546;48.170;11.724;2023-03-20T08:15:59;10.40;;;7.70;;
3487;SDS011;38546;48.170;11.724;2023-03-20T08:18:48;12.00;;;8.03;;
3487;SDS011;38546;48.170;11.724;2023-03-20T08:21:39;9.83;;;7.47;;
3487;SDS011;38546;48.170;11.724;2023-03-20T08:24:29;10.87;;;7.33;;
3487;SDS011;38546;48.170;11.724;2023-03-20T08:27:19;10.10;;;7.33;;
3487;SDS011;38546;48.170;11.724;2023-03-20T08:30:08;13.00;;;8.53;;
3487;SDS011;38546;48.170;11.724;2023-03-20T08:33:00;11.17;;;7.20;;
3487;SDS011;38546;48.170;11.724;2023-03-20T08:35:56;12.00;;;6.97;;
3487;SDS011;38546;48.170;11.724;2023-03-20T08:38:49;8.80;;;6.53;;
3487;SDS011;38546;48.170;11.724;2023-03-20T08:41:38;8.07;;;6.30;;
3487;SDS011;38546;48.170;11.724;2023-03-20T08:44:29;8.40;;;6.40;;
3487;SDS011;38546;48.170;11.724;2023-03-20T08:47:18;9.17;;;6.43;;
3487;SDS011;38546;48.170;11.724;2023-03-20T08:50:08;11.60;;;7.77;;
3487;SDS011;38546;48.170;11.724;2023-03-20T08:52:58;8.17;;;6.50;;
3487;SDS011;38546;48.170;11.724;2023-03-20T08:55:49;9.03;;;6.70;;
3487;SDS011;38546;48.170;11.724;2023-03-20T08:58:39;7.80;;;6.50;;
3487;SDS011;38546;48.170;11.724;2023-03-20T09:01:28;6.87;;;5.57;;
3487;SDS011;38546;48.170;11.724;2023-03-20T09:04:17;6.43;;;5.47;;
3487;SDS011;38546;48.170;11.724;2023-03-20T09:07:06;6.03;;;5.50;;
3487;SDS011;38546;48.170;11.724;2023-03-20T09:09:56;9.30;;;5.67;;
3487;SDS011;38546;48.170;11.724;2023-03-20T09:12:44;9.53;;;5.40;;
3487;SDS011;38546;48.170;11.724;2023-03-20T09:15:34;6.80;;;4.90;;
3487;SDS011;38546;48.170;11.724;2023-03-20T09:18:23;4.60;;;4.17;;
3487;SDS011;38546;48.170;11.724;2023-03-20T09:21:13;6.47;;;5.60;;
3487;SDS011;38546;48.170;11.724;2023-03-20T09:24:02;5.20;;;4.80;;
3487;SDS011;38546;48.170;11.724;2023-03-20T09:26:52;5.90;;;5.00;;
3487;SDS011;38546;48.170;11.724;2023-03-20T09:29:41;7.17;;;6.47;;
3487;SDS011;38546;48.170;11.724;2023-03-20T09:32:32;7.00;;;5.10;;
3487;SDS011;38546;48.170;11.724;2023-03-20T09:35:22;6.50;;;5.37;;
3487;SDS011;38546;48.170;11.724;2023-03-20T09:38:11;5.00;;;4.47;;
3487;SDS011;38546;48.170;11.724;2023-03-20T09:41:02;6.27;;;5.00;;
3487;SDS011;38546;48.170;11.724;2023-03-20T09:44:02;6.67;;;5.10;;
3487;SDS011;38546;48.170;11.724;2023-03-20T09:52:19;7.57;;;5.13;;
3487;SDS011;38546;48.170;11.724;2023-03-20T09:55:20;4.80;;;4.40;;
3487;SDS011;38546;48.170;11.724;2023-03-20T09:58:31;4.90;;;4.30;;
3487;SDS011;38546;48.170;11.724;2023-03-20T10:01:25;4.87;;;4.40;;
3487;SDS011;38546;48.170;11.724;2023-03-20T10:04:19;5.00;;;4.50;;
3487;SDS011;38546;48.170;11.724;2023-03-20T10:07:11;5.07;;;4.43;;
3487;SDS011;38546;48.170;11.724;2023-03-20T10:10:05;5.07;;;4.53;;
3487;SDS011;38546;48.170;11.724;2023-03-20T10:12:58;5.07;;;4.57;;
3487;SDS011;38546;48.170;11.724;2023-03-20T10:17:38;9.63;;;4.50;;
3487;SDS011;38546;48.170;11.724;2023-03-20T10:20:54;6.03;;;4.37;;
3487;SDS011;38546;48.170;11.724;2023-03-20T10:27:21;4.77;;;4.37;;
3487;SDS011;38546;48.170;11.724;2023-03-20T10:30:28;4.13;;;3.80;;
3487;SDS011;38546;48.170;11.724;2023-03-20T10:38:43;3.83;;;3.53;;
3487;SDS011;38546;48.170;11.724;2023-03-20T10:41:58;4.27;;;3.97;;
3487;SDS011;38546;48.170;11.724;2023-03-20T10:44:55;4.07;;;3.67;;
3487;SDS011;38546;48.170;11.724;2023-03-20T10:50:42;4.40;;;3.97;;
3487;SDS011;38546;48.170;11.724;2023-03-20T10:53:41;3.73;;;3.53;;
3487;SDS011;38546;48.170;11.724;2023-03-20T10:56:46;3.00;;;2.80;;
3487;SDS011;38546;48.170;11.724;2023-03-20T10:59:38;2.77;;;2.60;;
3487;SDS011;38546;48.170;11.724;2023-03-20T11:02:31;3.60;;;3.30;;
3487;SDS011;38546;48.170;11.724;2023-03-20T11:05:28;4.00;;;3.07;;
3487;SDS011;38546;48.170;11.724;2023-03-20T11:08:21;3.03;;;2.83;;
3487;SDS011;38546;48.170;11.724;2023-03-20T11:11:12;2.97;;;2.77;;
3487;SDS011;38546;48.170;11.724;2023-03-20T11:14:17;3.90;;;3.00;;
3487;SDS011;38546;48.170;11.724;2023-03-20T11:17:10;2.80;;;2.70;;
3487;SDS011;38546;48.170;11.724;2023-03-20T11:20:02;3.70;;;3.40;;
3487;SDS011;38546;48.170;11.724;2023-03-20T11:22:56;2.93;;;2.73;;
3487;SDS011;38546;48.170;11.724;2023-03-20T11:26:00;3.73;;;3.50;;
3487;SDS011;38546;48.170;11.724;2023-03-20T11:28:54;3.37;;;3.03;;
3487;SDS011;38546;48.170;11.724;2023-03-20T11:31:45;2.67;;;2.43;;
3487;SDS011;38546;48.170;11.724;2023-03-20T11:34:35;4.33;;;3.20;;
3487;SDS011;38546;48.170;11.724;2023-03-20T11:37:27;3.43;;;3.17;;
3487;SDS011;38546;48.170;11.724;2023-03-20T11:40:30;2.67;;;2.47;;
3487;SDS011;38546;48.170;11.724;2023-03-20T11:43:21;2.40;;;2.30;;
3487;SDS011;38546;48.170;11.724;2023-03-20T11:46:15;2.00;;;1.90;;
3487;SDS011;38546;48.170;11.724;2023-03-20T11:49:26;2.50;;;2.27;;
3487;SDS011;38546;48.170;11.724;2023-03-20T11:52:22;1.93;;;1.83;;
3487;SDS011;38546;48.170;11.724;2023-03-20T11:55:28;1.97;;;1.87;;
3487;SDS011;38546;48.170;11.724;2023-03-20T11:58:20;2.27;;;2.17;;
3487;SDS011;38546;48.170;11.724;2023-03-20T12:01:12;1.73;;;1.63;;
3487;SDS011;38546;48.170;11.724;2023-03-20T12:07:08;2.47;;;2.27;;
3487;SDS011;38546;48.170;11.724;2023-03-20T12:10:09;2.07;;;1.77;;
3487;SDS011;38546;48.170;11.724;2023-03-20T12:13:02;2.37;;;2.27;;
3487;SDS011;38546;48.170;11.724;2023-03-20T12:16:12;1.93;;;1.93;;
3487;SDS011;38546;48.170;11.724;2023-03-20T12:19:10;1.50;;;1.50;;
3487;SDS011;38546;48.170;11.724;2023-03-20T12:25:23;1.70;;;1.70;;
3487;SDS011;38546;48.170;11.724;2023-03-20T12:35:27;3.63;;;1.53;;
3487;SDS011;38546;48.170;11.724;2023-03-20T12:38:29;1.40;;;1.40;;
3487;SDS011;38546;48.170;11.724;2023-03-20T12:46:36;5.03;;;1.90;;
3487;SDS011;38546;48.170;11.724;2023-03-20T12:57:00;1.83;;;1.73;;
3487;SDS011;38546;48.170;11.724;2023-03-20T13:14:27;2.00;;;1.90;;
3487;SDS011;38546;48.170;11.724;2023-03-20T13:24:18;2.37;;;2.27;;
3487;SDS011;38546;48.170;11.724;2023-03-20T13:27:26;2.60;;;2.50;;
3487;SDS011;38546;48.170;11.724;2023-03-20T13:30:40;2.87;;;2.60;;
3487;SDS011;38546;48.170;11.724;2023-03-20T13:33:49;2.70;;;2.50;;
3487;SDS011;38546;48.170;11.724;2023-03-20T13:37:12;3.90;;;3.70;;
3487;SDS011;38546;48.170;11.724;2023-03-20T13:44:02;2.60;;;1.83;;
3487;SDS011;38546;48.170;11.724;2023-03-20T13:46:54;2.47;;;2.27;;
3487;SDS011;38546;48.170;11.724;2023-03-20T13:50:23;2.97;;;2.77;;
3487;SDS011;38546;48.170;11.724;2023-03-20T13:53:49;3.43;;;3.13;;
3487;SDS011;38546;48.170;11.724;2023-03-20T13:57:09;2.20;;;2.00;;
3487;SDS011;38546;48.170;11.724;2023-03-20T14:03:39;2.00;;;1.90;;
3487;SDS011;38546;48.170;11.724;2023-03-20T14:06:44;2.70;;;2.47;;
3487;SDS011;38546;48.170;11.724;2023-03-20T14:09:44;1.60;;;1.50;;
3487;SDS011;38546;48.170;11.724;2023-03-20T14:12:33;2.37;;;2.27;;
3487;SDS011;38546;48.170;11.724;2023-03-20T14:15:24;2.23;;;2.13;;
3487;SDS011;38546;48.170;11.724;2023-03-20T14:18:20;2.20;;;2.10;;
3487;SDS011;38546;48.170;11.724;2023-03-20T14:21:12;2.43;;;2.23;;
3487;SDS011;38546;48.170;11.724;2023-03-20T14:24:06;1.93;;;1.83;;
3487;SDS011;38546;48.170;11.724;2023-03-20T14:27:01;2.47;;;2.27;;
3487;SDS011;38546;48.170;11.724;2023-03-20T14:29:51;2.60;;;2.40;;
3487;SDS011;38546;48.170;11.724;2023-03-20T14:32:50;2.27;;;2.13;;
3487;SDS011;38546;48.170;11.724;2023-03-20T14:37:26;2.07;;;1.90;;
3487;SDS011;38546;48.170;11.724;2023-03-20T14:40:21;1.93;;;1.83;;
3487;SDS011;38546;48.170;11.724;2023-03-20T14:43:19;2.30;;;1.93;;
3487;SDS011;38546;48.170;11.724;2023-03-20T14:52:59;1.83;;;1.73;;
3487;SDS011;38546;48.170;11.724;2023-03-20T14:56:26;2.47;;;2.27;;
3487;SDS011;38546;48.170;11.724;2023-03-20T14:59:19;2.70;;;2.53;;
3487;SDS011;38546;48.170;11.724;2023-03-20T15:02:23;1.80;;;1.70;;
3487;SDS011;38546;48.170;11.724;2023-03-20T15:05:25;2.07;;;1.90;;
3487;SDS011;38546;48.170;11.724;2023-03-20T15:08:20;2.03;;;1.93;;
3487;SDS011;38546;48.170;11.724;2023-03-20T15:11:13;2.23;;;2.10;;
3487;SDS011;38546;48.170;11.724;2023-03-20T15:14:03;2.33;;;2.23;;
3487;SDS011;38546;48.170;11.724;2023-03-20T15:16:56;3.17;;;2.20;;
3487;SDS011;38546;48.170;11.724;2023-03-20T15:19:57;2.20;;;2.10;;
3487;SDS011;38546;48.170;11.724;2023-03-20T15:23:12;2.57;;;2.37;;
3487;SDS011;38546;48.170;11.724;2023-03-20T15:26:01;3.03;;;2.77;;
3487;SDS011;38546;48.170;11.724;2023-03-20T15:28:54;2.70;;;2.50;;
3487;SDS011;38546;48.170;11.724;2023-03-20T15:31:55;2.50;;;2.30;;
3487;SDS011;38546;48.170;11.724;2023-03-20T15:34:47;2.27;;;2.03;;
3487;SDS011;38546;48.170;11.724;2023-03-20T15:37:38;4.00;;;2.30;;
3487;SDS011;38546;48.170;11.724;2023-03-20T15:40:37;4.13;;;2.20;;
3487;SDS011;38546;48.170;11.724;2023-03-20T15:43:27;2.13;;;2.03;;
3487;SDS011;38546;48.170;11.724;2023-03-20T15:46:16;2.33;;;2.23;;
3487;SDS011;38546;48.170;11.724;2023-03-20T15:49:06;2.27;;;2.07;;
3487;SDS011;38546;48.170;11.724;2023-03-20T15:51:56;2.20;;;1.90;;
3487;SDS011;38546;48.170;11.724;2023-03-20T15:54:49;2.40;;;2.20;;
3487;SDS011;38546;48.170;11.724;2023-03-20T15:57:39;2.20;;;1.70;;
3487;SDS011;38546;48.170;11.724;2023-03-20T16:00:36;2.10;;;2.00;;
3487;SDS011;38546;48.170;11.724;2023-03-20T16:03:29;1.60;;;1.50;;
3487;SDS011;38546;48.170;11.724;2023-03-20T16:06:20;2.90;;;1.90;;
3487;SDS011;38546;48.170;11.724;2023-03-20T16:09:13;1.97;;;1.87;;
3487;SDS011;38546;48.170;11.724;2023-03-20T16:12:06;3.93;;;2.07;;
3487;SDS011;38546;48.170;11.724;2023-03-20T16:15:04;1.40;;;1.40;;
3487;SDS011;38546;48.170;11.724;2023-03-20T16:17:55;2.00;;;1.90;;
3487;SDS011;38546;48.170;11.724;2023-03-20T16:20:48;1.83;;;1.73;;
3487;SDS011;38546;48.170;11.724;2023-03-20T16:23:44;1.73;;;1.70;;
3487;SDS011;38546;48.170;11.724;2023-03-20T16:26:36;1.87;;;1.77;;
3487;SDS011;38546;48.170;11.724;2023-03-20T16:29:30;1.60;;;1.57;;
3487;SDS011;38546;48.170;11.724;2023-03-20T16:32:32;2.07;;;1.97;;
3487;SDS011;38546;48.170;11.724;2023-03-20T16:35:37;1.50;;;1.50;;
3487;SDS011;38546;48.170;11.724;2023-03-20T16:38:33;4.47;;;2.40;;
3487;SDS011;38546;48.170;11.724;2023-03-20T16:41:34;2.10;;;1.90;;
3487;SDS011;38546;48.170;11.724;2023-03-20T16:44:28;1.50;;;1.40;;
3487;SDS011;38546;48.170;11.724;2023-03-20T16:47:24;2.50;;;1.80;;
3487;SDS011;38546;48.170;11.724;2023-03-20T16:50:32;1.70;;;1.60;;
3487;SDS011;38546;48.170;11.724;2023-03-20T16:53:25;1.80;;;1.80;;
3487;SDS011;38546;48.170;11.724;2023-03-20T16:56:28;2.00;;;1.90;;
3487;SDS011;38546;48.170;11.724;2023-03-20T16:59:24;2.07;;;1.97;;
3487;SDS011;38546;48.170;11.724;2023-03-20T17:02:22;2.20;;;2.10;;
3487;SDS011;38546;48.170;11.724;2023-03-20T17:05:18;4.23;;;2.27;;
3487;SDS011;38546;48.170;11.724;2023-03-20T17:08:11;2.00;;;1.90;;
3487;SDS011;38546;48.170;11.724;2023-03-20T17:15:28;2.57;;;2.20;;
3487;SDS011;38546;48.170;11.724;2023-03-20T17:18:17;2.60;;;2.20;;
3487;SDS011;38546;48.170;11.724;2023-03-20T17:21:08;2.30;;;2.20;;
3487;SDS011;38546;48.170;11.724;2023-03-20T17:23:57;19.33;;;2.53;;
3487;SDS011;38546;48.170;11.724;2023-03-20T17:26:52;3.80;;;2.20;;
3487;SDS011;38546;48.170;11.724;2023-03-20T17:29:43;3.20;;;2.90;;
3487;SDS011;38546;48.170;11.724;2023-03-20T17:32:33;4.07;;;3.77;;
3487;SDS011;38546;48.170;11.724;2023-03-20T17:35:22;9.73;;;3.40;;
3487;SDS011;38546;48.170;11.724;2023-03-20T17:38:18;6.60;;;3.60;;
3487;SDS011;38546;48.170;11.724;2023-03-20T17:41:15;4.50;;;3.73;;
3487;SDS011;38546;48.170;11.724;2023-03-20T17:44:07;4.40;;;4.00;;
3487;SDS011;38546;48.170;11.724;2023-03-20T17:46:57;6.90;;;3.97;;
3487;SDS011;38546;48.170;11.724;2023-03-20T17:49:48;4.57;;;4.20;;
3487;SDS011;38546;48.170;11.724;2023-03-20T17:52:42;4.53;;;4.20;;
3487;SDS011;38546;48.170;11.724;2023-03-20T17:55:31;6.70;;;5.47;;
3487;SDS011;38546;48.170;11.724;2023-03-20T17:58:21;4.60;;;4.23;;
3487;SDS011;38546;48.170;11.724;2023-03-20T18:01:11;5.50;;;4.03;;
3487;SDS011;38546;48.170;11.724;2023-03-20T18:04:01;5.33;;;3.60;;
3487;SDS011;38546;48.170;11.724;2023-03-20T18:06:50;3.00;;;2.80;;
3487;SDS011;38546;48.170;11.724;2023-03-20T18:09:39;15.93;;;3.53;;
3487;SDS011;38546;48.170;11.724;2023-03-20T18:12:30;4.00;;;2.57;;
3487;SDS011;38546;48.170;11.724;2023-03-20T18:15:22;2.80;;;2.60;;
3487;SDS011;38546;48.170;11.724;2023-03-20T18:18:11;2.33;;;2.23;;
3487;SDS011;38546;48.170;11.724;2023-03-20T18:21:01;2.53;;;2.43;;
3487;SDS011;38546;48.170;11.724;2023-03-20T18:23:50;2.43;;;2.23;;
3487;SDS011;38546;48.170;11.724;2023-03-20T18:26:39;5.40;;;3.43;;
3487;SDS011;38546;48.170;11.724;2023-03-20T18:29:31;2.73;;;2.53;;
3487;SDS011;38546;48.170;11.724;2023-03-20T18:32:20;3.20;;;3.00;;
3487;SDS011;38546;48.170;11.724;2023-03-20T18:35:09;3.30;;;3.00;;
3487;SDS011;38546;48.170;11.724;2023-03-20T18:37:59;3.17;;;2.97;;
3487;SDS011;38546;48.170;11.724;2023-03-20T18:40:49;8.20;;;6.30;;
3487;SDS011;38546;48.170;11.724;2023-03-20T18:43:41;13.10;;;9.00;;
3487;SDS011;38546;48.170;11.724;2023-03-20T18:46:30;12.40;;;8.37;;
3487;SDS011;38546;48.170;11.724;2023-03-20T18:49:20;11.73;;;7.23;;
3487;SDS011;38546;48.170;11.724;2023-03-20T18:52:10;7.30;;;6.53;;
3487;SDS011;38546;48.170;11.724;2023-03-20T18:55:01;10.17;;;7.63;;
3487;SDS011;38546;48.170;11.724;2023-03-20T18:57:51;15.60;;;11.50;;
3487;SDS011;38546;48.170;11.724;2023-03-20T19:00:41;21.27;;;14.17;;
3487;SDS011;38546;48.170;11.724;2023-03-20T19:03:30;23.37;;;14.70;;
3487;SDS011;38546;48.170;11.724;2023-03-20T19:06:26;19.70;;;12.37;;
3487;SDS011;38546;48.170;11.724;2023-03-20T19:09:18;14.70;;;10.47;;
3487;SDS011;38546;48.170;11.724;2023-03-20T19:12:07;12.43;;;9.30;;
3487;SDS011;38546;48.170;11.724;2023-03-20T19:14:56;8.40;;;7.53;;